My Meet Scores
Taylor DeYoung, Flipstar Gymnastics Academy - MyMeetScores.com
Top100 | Top Teams | Upcoming Meets | Completed Meets | Latest | Add Scores | Help| Support | Bookmark and Share

Taylor DeYoung, Flipstar Gymnastics Academy
Personal Bests
LevelVault BarsBeamFloorAA
49.4509.475 9.4009.47537.325
59.3009.225 8.4759.20035.775
69.5008.900 9.2259.15036.500
79.6759.375 9.5509.55037.725
89.0008.975 9.0009.52535.225
Meet Scores
Date Meet Team Session Level Division Vault Bars Beam Floor AA
2010-02-20 2010 Salto National Invitational Flipstar Gymnastics Academy All Sessions Combined 8 14 + 8.250 10T 6.250 21 8.775 9 9.450 3T 32.725 17T
2010-02-12 IGI Chicago Style Gymnastics Meet Flipstar Gymnastics Academy 413 8 14 & Over 8.250 24T 8.700 9 9.000 2T 9.075 7T 35.025 4
2010-01-09 Crossroads Classic 2010 Flipstar Gymnastics Academy All Sessions Combined 8 SR 7.850 18 6.800 19 8.350 9 7.850 18 30.850 17
2009-03-07 Midwest Open 2009 Gym Kinetics Sports Complex 3B 8 SeniorB 8.450 13 8.675 4 8.575 10 9.525 1 35.225 4
2009-02-06 IGI Chicago Style Gymnastics Meet Gym Kinetics Gymnastics 413 8 14+ 8.825 9T 8.975 2 0.000 23T 7.850 20 25.650 22
2009-01-23 2009 Bravo Classic Gym Kinetics Gymnastics 3A 8 14+ 9.000 3 8.725 8 8.325 13 8.475 16 34.525 9
2009-01-09 Twistars Invitational 2009 Midnight Madness Gym Kinetics Sports Complex 8c 8 14+ 8.650 3 8.950 1 8.600 4 8.050 7 34.250 2
2008-12-13 St Nick Invite Gym Kinetics Sports Complex 1 8 SR 8.950 8 6.550 14 8.450 8 8.800 8 32.750 9
2008-04-04 Arizona Optional State Championships Arizona Sunrays 7 7 Sr. C 9.675 1 9.375 3 9.250 5 9.425 4 37.725 3
2008-02-15 2008 Arizona Sunrays Hardrock Invitational Arizona Sunrays W2 7 Sr 9.550 1 8.650 11T 8.850 4T 9.225 4 36.275 3
2008-02-09 2008 Fiesta Bowl Invitational Arizona Sunrays 5A 7 Sr. B 9.500 1 7.900 5 9.225 2 9.550 1 36.175 2
2008-01-19 2008 Winter Sun Invitational Arizona Sunrays 1A 7 JUNIOR B 9.200 4 8.725 7 9.550 1 9.525 1 37.000 2T
2007-03-30 2007 AZ Level 7-10 State Championships Arizona Sunrays 6 7 Junior D 9.425 3 0.000 13 8.300 12 9.300 4 27.025 13
2007-03-10 2007 Flagstaff Winter Classic Arizona Sunrays 3 7 Sr 11+ 9.450 3 8.800 6 6.275 12 9.425 2 33.950 11
2007-02-17 2007 Long Beach Open Arizona Sunrays 1B 7 Jr 12-14 9.375 4T 9.150 15T 7.550 34 9.250 11 35.325 20T
2007-02-09 2007 Arizona Sunrays Hard Rock Invitational Arizona Sunrays 1 7 Child/JR A 9.050 5 0.000 27T 8.725 13T 9.175 7T 26.950 25
2007-02-02 2007 Fiesta Bowl Invitational Arizona Sunrays 5B 7 Sr. A 9.175 2 0.000 10 0.000 10 9.375 2 18.550 10
2006-11-04 2006 Fall Round Up Arizona Sunrays 4A 6 SENIOR A 9.275 1 8.900 5 9.225 3 9.100 5 36.500 1
2006-02-10 Hard Rock Invitational - Womens Arizona Sunrays 17 6 Child 9.200 2 7.850 16 8.375 13T 9.150 4 34.575 8
2006-01-21 2006 Winter Sun Invitational Arizona Sunrays 4A 6 JR B 9.500 1 6.700 13 8.600 7 8.850 3 33.650 4
2005-11-19 2005 AZ Level 5 & 6 State Championships Arizona Sunrays 2 5 Sr. B 9.300 1 9.225 3 8.000 13T 9.175 2 35.700 2
2005-10-29 2005 Tumbleweeds Halloween Invite Arizona Sunrays 1 5 Senior 8.875 3 9.225 3T 8.475 8 9.200 1 35.775 2
2005-02-04 AZ Sunrays Hard Rock Invite WOMENS Arizona Sunrays 2 4 JR/SR 9.150 3T 9.350 3 9.350 5T 9.475 3 37.325 4
2004-12-04 2004 AZ Level 4 State Championships Arizona Sunrays 2 4 JR D 9.450 1 9.475 1T 9.350 1T 9.000 3 37.275 2
2004-11-20 2004 PGA Invitational Arizona Sunrays 4A 4 Senior 8.900 16T 9.250 9T 9.400 8 9.350 3 36.900 3
2004-11-06 2004 Rock-n-Roll Classic Arizona Sunrays 1 4 Jr/Sr 10+ 9.450 1 9.200 3 8.950 6 9.300 2 36.900 2
2004-03-27 2004 Spring Championships Arizona Sunrays 1 4 Ch 9 9.050 9 8.650 27 7.950 32T 8.450 29 34.100 24
2004-03-13 2004 Cactus Cup Arizona Sunrays 1 4 Ch 9-10 8.800 21T 9.175 10 7.850 27T 8.400 29 34.225 26
2004-02-13 2004 Sweetheart Invitational Arizona Sunrays 1 4 Junior 8.225 39 8.900 9T 8.150 25 8.800 15 34.075 18
2003-12-13 AZ Level 4 State Arizona Sunrays 4 4 Ch 9 9.300 10T 9.100 14T 8.600 24 8.825 25T 35.825 19
2003-11-22 2003 PGA INVITATIONAL Arizona Sunrays 4 4 9 & 10 YRS 8.650 13 8.150 24T 6.000 30 6.450 30 29.250 30
2003-11-08 Harvest Cup Invitational Arizona Sunrays 2 4 Jr. 7-9 8.075 17 8.550 11 7.250 18 7.950 12 31.825 11

www.lazysuits.com